sensor_id;sensor_type;location;lat;lon;timestamp;temperature;humidity
76139;DHT22;65138;50.946;7.074;2023-03-04T00:00:56;17.50;43.20
76139;DHT22;65138;50.946;7.074;2023-03-04T00:03:22;17.50;43.30
76139;DHT22;65138;50.946;7.074;2023-03-04T00:05:47;17.50;43.50
76139;DHT22;65138;50.946;7.074;2023-03-04T00:08:13;17.50;43.20
76139;DHT22;65138;50.946;7.074;2023-03-04T00:10:39;17.50;43.20
76139;DHT22;65138;50.946;7.074;2023-03-04T00:13:04;17.50;43.20
76139;DHT22;65138;50.946;7.074;2023-03-04T00:15:30;17.50;43.20
76139;DHT22;65138;50.946;7.074;2023-03-04T00:17:55;17.50;43.30
76139;DHT22;65138;50.946;7.074;2023-03-04T00:20:21;17.50;43.40
76139;DHT22;65138;50.946;7.074;2023-03-04T00:22:46;17.50;43.30
76139;DHT22;65138;50.946;7.074;2023-03-04T00:25:12;17.50;43.40
76139;DHT22;65138;50.946;7.074;2023-03-04T00:27:38;17.50;44.00
76139;DHT22;65138;50.946;7.074;2023-03-04T00:30:04;17.50;43.30
76139;DHT22;65138;50.946;7.074;2023-03-04T00:32:30;17.50;43.30
76139;DHT22;65138;50.946;7.074;2023-03-04T00:34:56;17.50;43.30
76139;DHT22;65138;50.946;7.074;2023-03-04T00:37:21;17.50;43.30
76139;DHT22;65138;50.946;7.074;2023-03-04T00:39:49;17.50;43.30
76139;DHT22;65138;50.946;7.074;2023-03-04T00:42:14;17.40;43.30
76139;DHT22;65138;50.946;7.074;2023-03-04T00:44:40;17.40;43.30
76139;DHT22;65138;50.946;7.074;2023-03-04T00:47:06;17.40;43.30
76139;DHT22;65138;50.946;7.074;2023-03-04T00:49:32;17.40;43.40
76139;DHT22;65138;50.946;7.074;2023-03-04T00:51:57;17.40;43.30
76139;DHT22;65138;50.946;7.074;2023-03-04T00:54:23;17.40;43.30
76139;DHT22;65138;50.946;7.074;2023-03-04T00:56:48;17.40;43.40
76139;DHT22;65138;50.946;7.074;2023-03-04T00:59:14;17.40;43.40
76139;DHT22;65138;50.946;7.074;2023-03-04T01:01:40;17.40;43.40
76139;DHT22;65138;50.946;7.074;2023-03-04T01:04:05;17.40;44.00
76139;DHT22;65138;50.946;7.074;2023-03-04T01:06:31;17.40;43.30
76139;DHT22;65138;50.946;7.074;2023-03-04T01:08:57;17.40;43.40
76139;DHT22;65138;50.946;7.074;2023-03-04T01:11:23;17.40;43.30
76139;DHT22;65138;50.946;7.074;2023-03-04T01:13:48;17.40;43.40
76139;DHT22;65138;50.946;7.074;2023-03-04T01:16:14;17.40;43.40
76139;DHT22;65138;50.946;7.074;2023-03-04T01:18:39;17.40;43.50
76139;DHT22;65138;50.946;7.074;2023-03-04T01:21:05;17.40;43.50
76139;DHT22;65138;50.946;7.074;2023-03-04T01:23:31;17.40;43.40
76139;DHT22;65138;50.946;7.074;2023-03-04T01:25:56;17.40;43.40
76139;DHT22;65138;50.946;7.074;2023-03-04T01:28:23;17.40;43.30
76139;DHT22;65138;50.946;7.074;2023-03-04T01:30:49;17.40;43.30
76139;DHT22;65138;50.946;7.074;2023-03-04T01:33:15;17.40;43.50
76139;DHT22;65138;50.946;7.074;2023-03-04T01:35:41;17.40;43.50
76139;DHT22;65138;50.946;7.074;2023-03-04T01:38:06;17.40;43.50
76139;DHT22;65138;50.946;7.074;2023-03-04T01:40:32;17.40;43.40
76139;DHT22;65138;50.946;7.074;2023-03-04T01:42:58;17.40;43.50
76139;DHT22;65138;50.946;7.074;2023-03-04T01:45:24;17.40;43.50
76139;DHT22;65138;50.946;7.074;2023-03-04T01:47:50;17.40;43.30
76139;DHT22;65138;50.946;7.074;2023-03-04T01:50:36;17.40;43.30
76139;DHT22;65138;50.946;7.074;2023-03-04T01:53:02;17.40;43.50
76139;DHT22;65138;50.946;7.074;2023-03-04T01:55:29;17.40;43.50
76139;DHT22;65138;50.946;7.074;2023-03-04T01:57:55;17.30;43.40
76139;DHT22;65138;50.946;7.074;2023-03-04T02:00:32;17.40;43.50
76139;DHT22;65138;50.946;7.074;2023-03-04T02:03:17;17.30;43.40
76139;DHT22;65138;50.946;7.074;2023-03-04T02:05:48;17.30;43.40
76139;DHT22;65138;50.946;7.074;2023-03-04T02:08:15;17.30;43.60
76139;DHT22;65138;50.946;7.074;2023-03-04T02:10:42;17.40;43.50
76139;DHT22;65138;50.946;7.074;2023-03-04T02:13:08;17.30;43.50
76139;DHT22;65138;50.946;7.074;2023-03-04T02:15:34;17.30;43.50
76139;DHT22;65138;50.946;7.074;2023-03-04T02:18:00;17.30;43.50
76139;DHT22;65138;50.946;7.074;2023-03-04T02:25:32;17.30;43.50
76139;DHT22;65138;50.946;7.074;2023-03-04T02:28:00;17.30;43.50
76139;DHT22;65138;50.946;7.074;2023-03-04T02:30:26;17.30;43.50
76139;DHT22;65138;50.946;7.074;2023-03-04T02:32:52;17.30;43.50
76139;DHT22;65138;50.946;7.074;2023-03-04T02:35:19;17.30;43.50
76139;DHT22;65138;50.946;7.074;2023-03-04T02:37:45;17.30;43.50
76139;DHT22;65138;50.946;7.074;2023-03-04T02:40:16;17.30;43.70
76139;DHT22;65138;50.946;7.074;2023-03-04T02:42:44;17.30;44.20
76139;DHT22;65138;50.946;7.074;2023-03-04T02:45:42;17.30;43.50
76139;DHT22;65138;50.946;7.074;2023-03-04T02:48:09;17.30;43.60
76139;DHT22;65138;50.946;7.074;2023-03-04T02:50:44;17.30;43.60
76139;DHT22;65138;50.946;7.074;2023-03-04T02:53:11;17.30;43.60
76139;DHT22;65138;50.946;7.074;2023-03-04T02:55:37;17.30;43.50
76139;DHT22;65138;50.946;7.074;2023-03-04T02:58:03;17.30;43.60
76139;DHT22;65138;50.946;7.074;2023-03-04T03:00:29;17.30;43.60
76139;DHT22;65138;50.946;7.074;2023-03-04T03:02:55;17.30;43.60
76139;DHT22;65138;50.946;7.074;2023-03-04T03:05:26;17.30;43.60
76139;DHT22;65138;50.946;7.074;2023-03-04T03:07:53;17.30;43.70
76139;DHT22;65138;50.946;7.074;2023-03-04T03:10:19;17.30;43.70
76139;DHT22;65138;50.946;7.074;2023-03-04T03:12:46;17.30;43.60
76139;DHT22;65138;50.946;7.074;2023-03-04T03:15:11;17.30;43.80
76139;DHT22;65138;50.946;7.074;2023-03-04T03:17:37;17.30;43.70
76139;DHT22;65138;50.946;7.074;2023-03-04T03:20:03;17.20;43.60
76139;DHT22;65138;50.946;7.074;2023-03-04T03:22:29;17.30;43.70
76139;DHT22;65138;50.946;7.074;2023-03-04T03:24:55;17.20;43.70
76139;DHT22;65138;50.946;7.074;2023-03-04T03:27:20;17.30;43.70
76139;DHT22;65138;50.946;7.074;2023-03-04T03:29:46;17.30;43.70
76139;DHT22;65138;50.946;7.074;2023-03-04T03:32:12;17.30;43.70
76139;DHT22;65138;50.946;7.074;2023-03-04T03:34:37;17.30;43.70
76139;DHT22;65138;50.946;7.074;2023-03-04T03:37:03;17.30;43.80
76139;DHT22;65138;50.946;7.074;2023-03-04T03:39:28;17.20;43.70
76139;DHT22;65138;50.946;7.074;2023-03-04T03:41:54;17.20;43.70
76139;DHT22;65138;50.946;7.074;2023-03-04T03:44:19;17.20;43.60
76139;DHT22;65138;50.946;7.074;2023-03-04T03:46:45;17.20;43.60
76139;DHT22;65138;50.946;7.074;2023-03-04T03:49:11;17.30;43.80
76139;DHT22;65138;50.946;7.074;2023-03-04T03:51:37;17.20;43.70
76139;DHT22;65138;50.946;7.074;2023-03-04T03:54:03;17.20;43.70
76139;DHT22;65138;50.946;7.074;2023-03-04T03:56:29;17.20;43.70
76139;DHT22;65138;50.946;7.074;2023-03-04T03:58:54;17.30;43.70
76139;DHT22;65138;50.946;7.074;2023-03-04T04:01:20;17.20;43.70
76139;DHT22;65138;50.946;7.074;2023-03-04T04:03:45;17.20;43.80
76139;DHT22;65138;50.946;7.074;2023-03-04T04:06:11;17.20;43.80
76139;DHT22;65138;50.946;7.074;2023-03-04T04:08:37;17.20;43.70
76139;DHT22;65138;50.946;7.074;2023-03-04T04:11:03;17.20;43.70
76139;DHT22;65138;50.946;7.074;2023-03-04T04:13:28;17.20;43.70
76139;DHT22;65138;50.946;7.074;2023-03-04T04:15:54;17.20;43.70
76139;DHT22;65138;50.946;7.074;2023-03-04T04:18:19;17.20;43.70
76139;DHT22;65138;50.946;7.074;2023-03-04T04:20:45;17.20;43.80
76139;DHT22;65138;50.946;7.074;2023-03-04T04:23:11;17.20;43.90
76139;DHT22;65138;50.946;7.074;2023-03-04T04:25:37;17.20;43.80
76139;DHT22;65138;50.946;7.074;2023-03-04T04:28:02;17.20;43.70
76139;DHT22;65138;50.946;7.074;2023-03-04T04:30:28;17.20;43.90
76139;DHT22;65138;50.946;7.074;2023-03-04T04:32:54;17.20;43.90
76139;DHT22;65138;50.946;7.074;2023-03-04T04:35:19;17.20;43.80
76139;DHT22;65138;50.946;7.074;2023-03-04T04:37:45;17.20;43.80
76139;DHT22;65138;50.946;7.074;2023-03-04T04:40:11;17.20;43.80
76139;DHT22;65138;50.946;7.074;2023-03-04T04:42:36;17.20;43.80
76139;DHT22;65138;50.946;7.074;2023-03-04T04:45:02;17.20;43.90
76139;DHT22;65138;50.946;7.074;2023-03-04T04:47:28;17.20;43.80
76139;DHT22;65138;50.946;7.074;2023-03-04T04:49:54;17.20;43.80
76139;DHT22;65138;50.946;7.074;2023-03-04T04:52:19;17.20;44.40
76139;DHT22;65138;50.946;7.074;2023-03-04T04:54:45;17.20;43.80
76139;DHT22;65138;50.946;7.074;2023-03-04T04:57:11;17.20;43.80
76139;DHT22;65138;50.946;7.074;2023-03-04T04:59:36;17.20;44.50
76139;DHT22;65138;50.946;7.074;2023-03-04T05:02:02;17.20;43.90
76139;DHT22;65138;50.946;7.074;2023-03-04T05:04:27;17.20;43.80
76139;DHT22;65138;50.946;7.074;2023-03-04T05:06:53;17.20;43.90
76139;DHT22;65138;50.946;7.074;2023-03-04T05:09:19;17.20;43.90
76139;DHT22;65138;50.946;7.074;2023-03-04T05:11:45;17.20;44.00
76139;DHT22;65138;50.946;7.074;2023-03-04T05:14:10;17.20;43.90
76139;DHT22;65138;50.946;7.074;2023-03-04T05:16:36;17.20;43.80
76139;DHT22;65138;50.946;7.074;2023-03-04T05:19:02;17.30;43.80
76139;DHT22;65138;50.946;7.074;2023-03-04T05:21:27;17.30;43.80
76139;DHT22;65138;50.946;7.074;2023-03-04T05:23:53;17.30;43.70
76139;DHT22;65138;50.946;7.074;2023-03-04T05:26:18;17.30;43.70
76139;DHT22;65138;50.946;7.074;2023-03-04T05:28:45;17.40;43.70
76139;DHT22;65138;50.946;7.074;2023-03-04T05:31:11;17.40;43.70
76139;DHT22;65138;50.946;7.074;2023-03-04T05:33:37;17.40;43.70
76139;DHT22;65138;50.946;7.074;2023-03-04T05:36:04;17.50;43.70
76139;DHT22;65138;50.946;7.074;2023-03-04T05:38:30;17.50;43.60
76139;DHT22;65138;50.946;7.074;2023-03-04T05:40:58;17.50;43.60
76139;DHT22;65138;50.946;7.074;2023-03-04T05:43:25;17.50;43.60
76139;DHT22;65138;50.946;7.074;2023-03-04T05:45:51;17.50;43.50
76139;DHT22;65138;50.946;7.074;2023-03-04T05:48:17;17.60;43.50
76139;DHT22;65138;50.946;7.074;2023-03-04T05:50:43;17.60;43.60
76139;DHT22;65138;50.946;7.074;2023-03-04T05:53:08;17.60;44.20
76139;DHT22;65138;50.946;7.074;2023-03-04T05:55:34;17.60;43.50
76139;DHT22;65138;50.946;7.074;2023-03-04T05:57:59;17.60;43.50
76139;DHT22;65138;50.946;7.074;2023-03-04T06:00:25;17.60;43.50
76139;DHT22;65138;50.946;7.074;2023-03-04T06:02:51;17.60;43.40
76139;DHT22;65138;50.946;7.074;2023-03-04T06:05:17;17.60;43.40
76139;DHT22;65138;50.946;7.074;2023-03-04T06:07:43;17.70;43.40
76139;DHT22;65138;50.946;7.074;2023-03-04T06:10:14;17.70;43.40
76139;DHT22;65138;50.946;7.074;2023-03-04T06:12:40;17.70;43.40
76139;DHT22;65138;50.946;7.074;2023-03-04T06:15:07;17.70;43.50
76139;DHT22;65138;50.946;7.074;2023-03-04T06:17:35;17.70;43.50
76139;DHT22;65138;50.946;7.074;2023-03-04T06:20:01;17.70;43.50
76139;DHT22;65138;50.946;7.074;2023-03-04T06:22:26;17.70;43.50
76139;DHT22;65138;50.946;7.074;2023-03-04T06:24:52;17.70;43.40
76139;DHT22;65138;50.946;7.074;2023-03-04T06:27:17;17.80;43.50
76139;DHT22;65138;50.946;7.074;2023-03-04T06:29:43;17.80;43.40
76139;DHT22;65138;50.946;7.074;2023-03-04T06:32:09;17.80;43.40
76139;DHT22;65138;50.946;7.074;2023-03-04T06:34:34;17.80;43.40
76139;DHT22;65138;50.946;7.074;2023-03-04T06:37:00;17.80;43.40
76139;DHT22;65138;50.946;7.074;2023-03-04T06:39:26;17.80;43.40
76139;DHT22;65138;50.946;7.074;2023-03-04T06:41:51;17.80;43.40
76139;DHT22;65138;50.946;7.074;2023-03-04T06:44:17;17.80;43.30
76139;DHT22;65138;50.946;7.074;2023-03-04T06:46:43;17.80;43.40
76139;DHT22;65138;50.946;7.074;2023-03-04T06:49:08;17.80;43.40
76139;DHT22;65138;50.946;7.074;2023-03-04T06:51:34;17.80;43.40
76139;DHT22;65138;50.946;7.074;2023-03-04T06:54:00;17.80;43.40
76139;DHT22;65138;50.946;7.074;2023-03-04T06:56:25;17.80;43.50
76139;DHT22;65138;50.946;7.074;2023-03-04T06:58:51;17.00;44.40
76139;DHT22;65138;50.946;7.074;2023-03-04T07:01:22;17.40;44.10
76139;DHT22;65138;50.946;7.074;2023-03-04T07:03:49;16.60;44.00
76139;DHT22;65138;50.946;7.074;2023-03-04T07:06:18;15.20;46.40
76139;DHT22;65138;50.946;7.074;2023-03-04T07:08:44;14.50;48.30
76139;DHT22;65138;50.946;7.074;2023-03-04T07:11:10;15.60;46.90
76139;DHT22;65138;50.946;7.074;2023-03-04T07:13:36;16.40;45.30
76139;DHT22;65138;50.946;7.074;2023-03-04T07:16:07;16.90;44.40
76139;DHT22;65138;50.946;7.074;2023-03-04T07:18:33;17.10;44.10
76139;DHT22;65138;50.946;7.074;2023-03-04T07:20:59;17.30;44.00
76139;DHT22;65138;50.946;7.074;2023-03-04T07:23:24;17.40;44.40
76139;DHT22;65138;50.946;7.074;2023-03-04T07:25:50;17.50;43.60
76139;DHT22;65138;50.946;7.074;2023-03-04T07:28:16;17.50;43.60
76139;DHT22;65138;50.946;7.074;2023-03-04T07:30:42;17.50;43.50
76139;DHT22;65138;50.946;7.074;2023-03-04T07:33:08;17.60;43.50
76139;DHT22;65138;50.946;7.074;2023-03-04T07:35:33;17.60;43.50
76139;DHT22;65138;50.946;7.074;2023-03-04T07:37:59;17.60;43.40
76139;DHT22;65138;50.946;7.074;2023-03-04T07:40:25;17.70;43.40
76139;DHT22;65138;50.946;7.074;2023-03-04T07:42:52;17.70;43.40
76139;DHT22;65138;50.946;7.074;2023-03-04T07:45:18;17.70;43.40
76139;DHT22;65138;50.946;7.074;2023-03-04T07:47:44;17.70;43.30
76139;DHT22;65138;50.946;7.074;2023-03-04T07:50:10;17.80;43.30
76139;DHT22;65138;50.946;7.074;2023-03-04T07:52:41;17.80;43.30
76139;DHT22;65138;50.946;7.074;2023-03-04T07:55:08;17.80;43.30
76139;DHT22;65138;50.946;7.074;2023-03-04T07:57:37;17.80;43.30
76139;DHT22;65138;50.946;7.074;2023-03-04T08:00:02;17.80;43.40
76139;DHT22;65138;50.946;7.074;2023-03-04T08:02:38;17.80;43.20
76139;DHT22;65138;50.946;7.074;2023-03-04T08:05:04;17.90;43.30
76139;DHT22;65138;50.946;7.074;2023-03-04T08:07:29;17.90;43.30
76139;DHT22;65138;50.946;7.074;2023-03-04T08:09:55;17.90;43.20
76139;DHT22;65138;50.946;7.074;2023-03-04T08:12:21;17.90;43.40
76139;DHT22;65138;50.946;7.074;2023-03-04T08:14:49;17.90;43.30
76139;DHT22;65138;50.946;7.074;2023-03-04T08:17:14;17.90;43.30
76139;DHT22;65138;50.946;7.074;2023-03-04T08:19:40;17.90;43.30
76139;DHT22;65138;50.946;7.074;2023-03-04T08:22:06;17.90;43.30
76139;DHT22;65138;50.946;7.074;2023-03-04T08:24:31;17.90;43.30
76139;DHT22;65138;50.946;7.074;2023-03-04T08:26:57;17.90;43.20
76139;DHT22;65138;50.946;7.074;2023-03-04T08:29:24;17.90;43.30
76139;DHT22;65138;50.946;7.074;2023-03-04T08:31:51;17.90;43.20
76139;DHT22;65138;50.946;7.074;2023-03-04T08:34:22;18.00;43.30
76139;DHT22;65138;50.946;7.074;2023-03-04T08:36:48;17.10;44.60
76139;DHT22;65138;50.946;7.074;2023-03-04T08:39:15;15.80;47.10
76139;DHT22;65138;50.946;7.074;2023-03-04T08:41:41;15.40;48.60
76139;DHT22;65138;50.946;7.074;2023-03-04T08:44:07;15.80;48.10
76139;DHT22;65138;50.946;7.074;2023-03-04T08:46:35;16.50;46.80
76139;DHT22;65138;50.946;7.074;2023-03-04T08:49:02;16.90;46.20
76139;DHT22;65138;50.946;7.074;2023-03-04T08:51:27;17.20;45.30
76139;DHT22;65138;50.946;7.074;2023-03-04T08:53:53;17.40;44.90
76139;DHT22;65138;50.946;7.074;2023-03-04T08:56:19;17.50;44.60
76139;DHT22;65138;50.946;7.074;2023-03-04T08:58:44;17.60;44.40
76139;DHT22;65138;50.946;7.074;2023-03-04T09:01:11;17.60;44.10
76139;DHT22;65138;50.946;7.074;2023-03-04T09:03:39;17.70;44.00
76139;DHT22;65138;50.946;7.074;2023-03-04T09:06:05;17.70;44.00
76139;DHT22;65138;50.946;7.074;2023-03-04T09:08:31;17.70;44.00
76139;DHT22;65138;50.946;7.074;2023-03-04T09:10:57;17.70;43.90
76139;DHT22;65138;50.946;7.074;2023-03-04T09:13:23;17.80;43.90
76139;DHT22;65138;50.946;7.074;2023-03-04T09:15:50;17.80;43.80
76139;DHT22;65138;50.946;7.074;2023-03-04T09:18:18;17.80;43.80
76139;DHT22;65138;50.946;7.074;2023-03-04T09:20:44;17.80;43.90
76139;DHT22;65138;50.946;7.074;2023-03-04T09:23:11;17.80;43.90
76139;DHT22;65138;50.946;7.074;2023-03-04T09:25:37;17.90;44.40
76139;DHT22;65138;50.946;7.074;2023-03-04T09:28:04;17.90;43.70
76139;DHT22;65138;50.946;7.074;2023-03-04T09:30:30;17.90;43.90
76139;DHT22;65138;50.946;7.074;2023-03-04T09:32:56;17.90;43.90
76139;DHT22;65138;50.946;7.074;2023-03-04T09:35:22;17.90;44.00
76139;DHT22;65138;50.946;7.074;2023-03-04T09:37:47;17.90;44.00
76139;DHT22;65138;50.946;7.074;2023-03-04T09:40:20;18.00;43.90
76139;DHT22;65138;50.946;7.074;2023-03-04T09:42:49;18.00;43.90
76139;DHT22;65138;50.946;7.074;2023-03-04T09:45:18;18.00;44.10
76139;DHT22;65138;50.946;7.074;2023-03-04T09:47:45;18.10;44.00
76139;DHT22;65138;50.946;7.074;2023-03-04T09:50:12;18.10;43.80
76139;DHT22;65138;50.946;7.074;2023-03-04T09:52:54;18.10;43.70
76139;DHT22;65138;50.946;7.074;2023-03-04T09:55:44;18.10;43.70
76139;DHT22;65138;50.946;7.074;2023-03-04T09:58:24;18.10;43.70
76139;DHT22;65138;50.946;7.074;2023-03-04T10:01:11;18.10;43.70
76139;DHT22;65138;50.946;7.074;2023-03-04T10:03:47;18.10;43.60
76139;DHT22;65138;50.946;7.074;2023-03-04T10:06:18;18.10;43.70
76139;DHT22;65138;50.946;7.074;2023-03-04T10:11:37;18.10;43.60
76139;DHT22;65138;50.946;7.074;2023-03-04T10:17:08;18.10;43.60
76139;DHT22;65138;50.946;7.074;2023-03-04T10:19:51;18.10;43.60
76139;DHT22;65138;50.946;7.074;2023-03-04T10:22:27;18.10;43.60
76139;DHT22;65138;50.946;7.074;2023-03-04T10:24:56;18.10;43.50
76139;DHT22;65138;50.946;7.074;2023-03-04T10:27:22;18.10;43.70
76139;DHT22;65138;50.946;7.074;2023-03-04T10:29:49;18.10;43.70
76139;DHT22;65138;50.946;7.074;2023-03-04T10:32:17;18.20;43.60
76139;DHT22;65138;50.946;7.074;2023-03-04T10:34:43;18.10;43.50
76139;DHT22;65138;50.946;7.074;2023-03-04T10:37:09;18.10;43.50
76139;DHT22;65138;50.946;7.074;2023-03-04T10:39:37;18.10;43.50
76139;DHT22;65138;50.946;7.074;2023-03-04T10:42:05;18.10;43.50
76139;DHT22;65138;50.946;7.074;2023-03-04T10:44:33;18.20;43.60
76139;DHT22;65138;50.946;7.074;2023-03-04T10:46:59;18.10;43.50
76139;DHT22;65138;50.946;7.074;2023-03-04T10:49:26;18.10;43.60
76139;DHT22;65138;50.946;7.074;2023-03-04T10:52:01;18.20;43.60
76139;DHT22;65138;50.946;7.074;2023-03-04T10:54:33;18.10;43.50
76139;DHT22;65138;50.946;7.074;2023-03-04T10:57:12;18.10;43.70
76139;DHT22;65138;50.946;7.074;2023-03-04T10:59:47;18.10;44.00
76139;DHT22;65138;50.946;7.074;2023-03-04T11:02:31;18.10;43.90
76139;DHT22;65138;50.946;7.074;2023-03-04T11:05:14;18.10;43.90
76139;DHT22;65138;50.946;7.074;2023-03-04T11:15:29;18.20;43.70
76139;DHT22;65138;50.946;7.074;2023-03-04T11:18:11;18.20;43.70
76139;DHT22;65138;50.946;7.074;2023-03-04T11:20:41;18.20;43.70
76139;DHT22;65138;50.946;7.074;2023-03-04T11:23:15;18.20;43.80
76139;DHT22;65138;50.946;7.074;2023-03-04T11:25:50;18.20;43.70
76139;DHT22;65138;50.946;7.074;2023-03-04T11:28:41;18.20;43.70
76139;DHT22;65138;50.946;7.074;2023-03-04T11:31:20;18.20;43.70
76139;DHT22;65138;50.946;7.074;2023-03-04T11:34:02;18.20;43.70
76139;DHT22;65138;50.946;7.074;2023-03-04T11:39:33;18.20;43.70
76139;DHT22;65138;50.946;7.074;2023-03-04T11:42:36;18.20;43.70
76139;DHT22;65138;50.946;7.074;2023-03-04T11:45:12;18.20;43.70
76139;DHT22;65138;50.946;7.074;2023-03-04T11:50:50;18.20;43.70
76139;DHT22;65138;50.946;7.074;2023-03-04T11:53:56;18.20;43.80
76139;DHT22;65138;50.946;7.074;2023-03-04T11:56:34;18.20;43.80
76139;DHT22;65138;50.946;7.074;2023-03-04T11:59:19;18.20;43.80
76139;DHT22;65138;50.946;7.074;2023-03-04T12:07:53;18.20;43.70
76139;DHT22;65138;50.946;7.074;2023-03-04T12:10:46;18.20;43.70
76139;DHT22;65138;50.946;7.074;2023-03-04T12:16:09;18.20;43.80
76139;DHT22;65138;50.946;7.074;2023-03-04T12:21:28;18.20;43.60
76139;DHT22;65138;50.946;7.074;2023-03-04T12:26:56;18.20;43.80
76139;DHT22;65138;50.946;7.074;2023-03-04T12:29:54;18.20;43.70
76139;DHT22;65138;50.946;7.074;2023-03-04T12:34:56;18.20;43.70
76139;DHT22;65138;50.946;7.074;2023-03-04T12:40:26;18.20;43.70
76139;DHT22;65138;50.946;7.074;2023-03-04T12:45:56;18.10;43.80
76139;DHT22;65138;50.946;7.074;2023-03-04T12:48:46;18.10;44.00
76139;DHT22;65138;50.946;7.074;2023-03-04T12:51:59;18.10;43.90
76139;DHT22;65138;50.946;7.074;2023-03-04T12:54:19;18.10;43.90
76139;DHT22;65138;50.946;7.074;2023-03-04T12:56:57;18.10;43.80
76139;DHT22;65138;50.946;7.074;2023-03-04T12:59:25;18.20;43.90
76139;DHT22;65138;50.946;7.074;2023-03-04T13:05:15;18.10;43.90
76139;DHT22;65138;50.946;7.074;2023-03-04T13:10:40;18.10;43.80
76139;DHT22;65138;50.946;7.074;2023-03-04T13:13:36;18.20;43.80
76139;DHT22;65138;50.946;7.074;2023-03-04T13:16:05;18.20;43.80
76139;DHT22;65138;50.946;7.074;2023-03-04T13:18:46;18.20;43.90
76139;DHT22;65138;50.946;7.074;2023-03-04T13:21:29;18.10;43.80
76139;DHT22;65138;50.946;7.074;2023-03-04T13:23:57;18.10;43.90
76139;DHT22;65138;50.946;7.074;2023-03-04T13:26:32;18.10;43.90
76139;DHT22;65138;50.946;7.074;2023-03-04T13:34:45;18.10;43.90
76139;DHT22;65138;50.946;7.074;2023-03-04T13:37:36;17.90;44.90
76139;DHT22;65138;50.946;7.074;2023-03-04T13:40:31;16.40;46.90
76139;DHT22;65138;50.946;7.074;2023-03-04T13:43:24;16.70;47.10
76139;DHT22;65138;50.946;7.074;2023-03-04T13:45:51;17.20;46.40
76139;DHT22;65138;50.946;7.074;2023-03-04T13:48:29;17.50;45.70
76139;DHT22;65138;50.946;7.074;2023-03-04T13:50:56;17.70;45.30
76139;DHT22;65138;50.946;7.074;2023-03-04T13:53:40;17.80;44.90
76139;DHT22;65138;50.946;7.074;2023-03-04T13:56:27;17.80;44.90
76139;DHT22;65138;50.946;7.074;2023-03-04T14:01:31;17.90;44.60
76139;DHT22;65138;50.946;7.074;2023-03-04T14:03:58;17.90;44.70
76139;DHT22;65138;50.946;7.074;2023-03-04T14:06:27;17.90;44.60
76139;DHT22;65138;50.946;7.074;2023-03-04T14:08:53;17.90;44.60
76139;DHT22;65138;50.946;7.074;2023-03-04T14:11:39;17.90;44.50
76139;DHT22;65138;50.946;7.074;2023-03-04T14:14:14;17.90;44.60
76139;DHT22;65138;50.946;7.074;2023-03-04T14:16:50;18.00;44.50
76139;DHT22;65138;50.946;7.074;2023-03-04T14:19:43;18.00;44.60
76139;DHT22;65138;50.946;7.074;2023-03-04T14:25:05;18.00;44.50
76139;DHT22;65138;50.946;7.074;2023-03-04T14:27:33;18.00;44.50
76139;DHT22;65138;50.946;7.074;2023-03-04T14:30:03;17.90;44.50
76139;DHT22;65138;50.946;7.074;2023-03-04T14:32:30;17.90;44.60
76139;DHT22;65138;50.946;7.074;2023-03-04T14:35:06;18.00;44.60
76139;DHT22;65138;50.946;7.074;2023-03-04T14:37:47;17.90;44.50
76139;DHT22;65138;50.946;7.074;2023-03-04T14:40:19;18.00;44.60
76139;DHT22;65138;50.946;7.074;2023-03-04T14:42:47;18.00;44.50
76139;DHT22;65138;50.946;7.074;2023-03-04T14:45:16;18.00;44.60
76139;DHT22;65138;50.946;7.074;2023-03-04T14:47:44;18.00;44.50
76139;DHT22;65138;50.946;7.074;2023-03-04T14:50:19;18.00;44.60
76139;DHT22;65138;50.946;7.074;2023-03-04T14:53:00;18.00;44.50
76139;DHT22;65138;50.946;7.074;2023-03-04T14:55:27;18.00;44.60
76139;DHT22;65138;50.946;7.074;2023-03-04T14:58:05;18.00;44.50
76139;DHT22;65138;50.946;7.074;2023-03-04T15:00:33;18.00;44.50
76139;DHT22;65138;50.946;7.074;2023-03-04T15:03:06;18.00;44.60
76139;DHT22;65138;50.946;7.074;2023-03-04T15:05:41;18.00;44.60
76139;DHT22;65138;50.946;7.074;2023-03-04T15:08:36;18.00;44.60
76139;DHT22;65138;50.946;7.074;2023-03-04T15:11:07;18.00;44.60
76139;DHT22;65138;50.946;7.074;2023-03-04T15:13:40;18.00;44.60
76139;DHT22;65138;50.946;7.074;2023-03-04T15:16:08;18.00;44.60
76139;DHT22;65138;50.946;7.074;2023-03-04T15:18:34;18.00;44.80
76139;DHT22;65138;50.946;7.074;2023-03-04T15:21:23;18.00;44.80
76139;DHT22;65138;50.946;7.074;2023-03-04T15:23:50;18.00;44.70
76139;DHT22;65138;50.946;7.074;2023-03-04T15:26:16;18.00;44.70
76139;DHT22;65138;50.946;7.074;2023-03-04T15:28:42;17.90;44.70
76139;DHT22;65138;50.946;7.074;2023-03-04T15:31:18;17.90;44.90
76139;DHT22;65138;50.946;7.074;2023-03-04T15:33:44;18.00;44.80
76139;DHT22;65138;50.946;7.074;2023-03-04T15:36:19;18.00;44.80
76139;DHT22;65138;50.946;7.074;2023-03-04T15:38:51;17.90;44.90
76139;DHT22;65138;50.946;7.074;2023-03-04T15:41:25;17.90;44.80
76139;DHT22;65138;50.946;7.074;2023-03-04T15:43:52;18.00;44.80
76139;DHT22;65138;50.946;7.074;2023-03-04T15:46:18;18.00;44.80
76139;DHT22;65138;50.946;7.074;2023-03-04T15:48:45;18.00;44.70
76139;DHT22;65138;50.946;7.074;2023-03-04T15:51:21;18.00;44.70
76139;DHT22;65138;50.946;7.074;2023-03-04T15:53:51;18.00;44.80
76139;DHT22;65138;50.946;7.074;2023-03-04T15:56:18;17.90;44.80
76139;DHT22;65138;50.946;7.074;2023-03-04T15:58:49;18.00;44.80
76139;DHT22;65138;50.946;7.074;2023-03-04T16:01:17;18.00;44.80
76139;DHT22;65138;50.946;7.074;2023-03-04T16:03:42;17.80;45.70
76139;DHT22;65138;50.946;7.074;2023-03-04T16:06:13;17.30;46.60
76139;DHT22;65138;50.946;7.074;2023-03-04T16:08:40;17.50;46.60
76139;DHT22;65138;50.946;7.074;2023-03-04T16:11:12;17.60;46.40
76139;DHT22;65138;50.946;7.074;2023-03-04T16:13:38;17.30;47.60
76139;DHT22;65138;50.946;7.074;2023-03-04T16:16:04;16.80;48.30
76139;DHT22;65138;50.946;7.074;2023-03-04T16:18:30;17.00;48.60
76139;DHT22;65138;50.946;7.074;2023-03-04T16:20:55;17.20;48.10
76139;DHT22;65138;50.946;7.074;2023-03-04T16:23:22;17.50;47.90
76139;DHT22;65138;50.946;7.074;2023-03-04T16:25:51;17.70;47.20
76139;DHT22;65138;50.946;7.074;2023-03-04T16:28:18;17.80;47.00
76139;DHT22;65138;50.946;7.074;2023-03-04T16:30:44;17.80;46.90
76139;DHT22;65138;50.946;7.074;2023-03-04T16:33:09;17.80;47.10
76139;DHT22;65138;50.946;7.074;2023-03-04T16:35:37;17.90;47.30
76139;DHT22;65138;50.946;7.074;2023-03-04T16:38:04;17.90;47.00
76139;DHT22;65138;50.946;7.074;2023-03-04T16:40:30;18.00;47.00
76139;DHT22;65138;50.946;7.074;2023-03-04T16:42:56;18.10;46.80
76139;DHT22;65138;50.946;7.074;2023-03-04T16:45:26;18.10;46.50
76139;DHT22;65138;50.946;7.074;2023-03-04T16:47:54;18.20;47.00